Fruitvale (215) Station Data

Red Flag Warning: No
Fire Weather Zone: 250
SDGE Region: North East
Lat/Lon: 33.256/-116.982

Observations

Time Wind Speed/Gust Temp(F) RH Fuel Moist Fuel Temp(F) Dewpt(F) Tmax(F) Tmin(F) Accum Precip 10-min Precip SL Press(mb)
3/29 8:00am 51 3 G 4 65° 20% - - 23° 65.3° 57.4° - - -
3/29 7:50am 66 3 G 5 65° 18% - - 20° 65.3° 57.4° - - -
3/29 7:40am 48 3 G 4 63° 19% - - 20° 65.2° 57.4° - - -
3/29 7:30am 41 4 G 5 61° 23% - - 22° 65.2° 57.4° - - -
3/29 7:20am 51 4 G 7 62° 22% - - 22° 65.2° 57.4° - - -
3/29 7:10am 173 3 G 5 65° 16% - - 18° 65.2° 57.4° - - -
3/29 7:00am 155 3 G 5 65° 16% - - 18° 65° 57.4° - - -
3/29 6:50am 151 3 G 4 64° 17% - - 19° 65° 57.4° - - -
3/29 6:40am 87 2 G 4 64° 18% - - 20° 64.5° 57.4° - - -
3/29 6:30am 82 1 G 4 64° 18% - - 20° 64.5° 57.4° - - -
3/29 6:20am 88 3 G 4 64° 18% - - 20° 64.5° 57.4° - - -
3/29 6:10am 50 4 G 5 61° 21% - - 21° 63.1° 57.4° - - -
3/29 6:00am 37 6 G 7 59° 24% - - 23° 63.1° 57.4° - - -
3/29 5:50am 37 6 G 8 59° 26% - - 24° 63.1° 57.4° - - -
3/29 5:40am 34 6 G 8 60° 25% - - 24° 63.1° 57.4° - - -
3/29 5:30am 35 4 G 7 62° 23% - - 23° 63.1° 57.4° - - -
3/29 5:20am 34 3 G 5 62° 24% - - 25° 62.4° 57.4° - - -
3/29 5:10am 92 3 G 5 62° 24% - - 24° 62.4° 57.4° - - -
3/29 5:00am 124 2 G 4 62° 24% - - 25° 62.4° 57.4° - - -
3/29 4:50am 139 2 G 3 60° 29% - - 28° 62.4° 57.4° - - -
3/29 4:40am 81 3 G 4 60° 30% - - 28° 62.4° 57.4° - - -
3/29 4:30am 43 4 G 5 60° 30% - - 28° 62.4° 57.4° - - -
3/29 4:20am 28 4 G 5 59° 32% - - 29° 62.4° 57.4° - - -
3/29 4:10am 29 4 G 5 60° 31% - - 29° 62.4° 57.4° - - -
3/29 4:00am 35 4 G 5 59° 31% - - 29° 62.4° 57.4° - - -
3/29 3:50am 37 4 G 5 59° 30% - - 28° 62.4° 57.4° - - -
3/29 3:40am 31 3 G 5 60° 33% - - 31° 62.4° 57.4° - - -
3/29 3:30am 20 2 G 5 61° 34% - - 32° 62.4° 57.4° - - -
3/29 3:20am 38 2 G 4 61° 35% - - 33° 62.4° 57.4° - - -
3/29 3:10am 20 2 G 3 59° 36% - - 32° 62.4° 57.4° - - -
3/29 3:00am 32 4 G 6 59° 37% - - 33° 62.4° 57.4° - - -
3/29 2:50am 30 1 G 4 60° 36% - - 33° 62.4° 57.4° - - -
3/29 2:40am 23 3 G 4 61° 34% - - 32° 62.4° 57.4° - - -
3/29 2:30am 8 3 G 6 61° 33% - - 31° 62.4° 57.4° - - -
3/29 2:20am 26 3 G 4 60° 32% - - 31° 62.4° 57.4° - - -
3/29 2:10am 32 2 G 4 61° 31% - - 30° 62.4° 57.4° - - -
3/29 2:00am 32 3 G 5 60° 31% - - 29° 62.4° 57.4° - - -
3/29 1:50am 13 3 G 4 59° 34% - - 31° 62.4° 57.4° - - -
3/29 1:40am 42 4 G 6 59° 33% - - 30° 62.4° 57.4° - - -
3/29 1:30am 11 3 G 6 59° 32% - - 29° 62.4° 57.4° - - -
3/29 1:20am 41 5 G 7 59° 34% - - 30° 62.4° 57.4° - - -
3/29 1:10am 298 1 G 4 62° 35% - - 34° 62.4° 58° - - -
3/29 1:00am 319 2 G 4 61° 35% - - 33° 62.2° 58° - - -
3/29 12:50am 36 4 G 6 61° 33% - - 32° 61.4° 58° - - -
3/29 12:40am 27 2 G 4 61° 34% - - 32° 61.3° 58° - - -
3/29 12:30am 35 3 G 4 59° 38% - - 33° 59.9° 58° - - -
3/29 12:20am 37 4 G 5 58° 40% - - 34° 58.6° 58° - - -
3/29 12:10am 42 4 G 6 58° 41% - - 35° 58.5° 58.1° - - -
3/29 12:00am 32 3 G 4 58° 44% - - 36° 70.5° 46.9° - - -
3/28 11:50pm 44 3 G 6 59° 44% - - 37° 70.5° 46.9° - - -
3/28 11:40pm 22 1 G 3 60° 42% - - 37° 70.5° 46.9° - - -
3/28 11:30pm 91 1 G 3 60° 44% - - 38° 70.5° 46.9° - - -
3/28 11:20pm 20 2 G 3 59° 44% - - 37° 70.5° 46.9° - - -
3/28 11:10pm 26 4 G 5 58° 46% - - 38° 70.5° 46.9° - - -
3/28 11:00pm 43 4 G 6 59° 46% - - 38° 70.5° 46.9° - - -
3/28 10:50pm 43 4 G 5 58° 48% - - 38° 70.5° 46.9° - - -
3/28 10:40pm 55 5 G 6 57° 50% - - 39° 70.5° 46.9° - - -
3/28 10:30pm 41 5 G 6 57° 49% - - 38° 70.5° 46.9° - - -
3/28 10:20pm 41 4 G 5 57° 48% - - 38° 70.5° 46.9° - - -
3/28 10:10pm 47 3 G 5 58° 46% - - 37° 70.5° 46.9° - - -
3/28 10:00pm 37 4 G 5 58° 46% - - 38° 70.5° 46.9° - - -
3/28 9:50pm 35 4 G 5 58° 46% - - 37° 70.5° 46.9° - - -
3/28 9:40pm 42 3 G 4 58° 46% - - 38° 70.5° 46.9° - - -
3/28 9:30pm 62 3 G 4 58° 47% - - 38° 70.5° 46.9° - - -
3/28 9:20pm 107 3 G 4 58° 47% - - 38° 70.5° 46.9° - - -
3/28 9:10pm 86 2 G 3 58° 44% - - 37° 70.5° 46.9° - - -
3/28 9:00pm 155 1 G 2 59° 42% - - 36° 70.5° 46.9° - - -
3/28 8:50pm 266 0 G 1 59° 41% - - 36° 70.5° 46.9° - - -
3/28 8:40pm 246 1 G 2 60° 40% - - 35° 70.5° 46.9° - - -
3/28 8:30pm 233 2 G 3 60° 39% - - 35° 70.5° 46.9° - - -
3/28 8:20pm 255 1 G 2 60° 40% - - 35° 70.5° 46.9° - - -
3/28 8:10pm 256 3 G 3 59° 39% - - 34° 70.5° 46.9° - - -
3/28 8:00pm 256 4 G 5 60° 37% - - 33° 70.5° 46.9° - - -
3/28 7:50pm 262 3 G 5 60° 34% - - 32° 70.5° 46.9° - - -
3/28 7:40pm 265 3 G 4 60° 36% - - 33° 70.5° 46.9° - - -
3/28 7:30pm 287 4 G 5 60° 38% - - 34° 70.5° 46.9° - - -
3/28 7:20pm 277 4 G 6 60° 38% - - 35° 70.5° 46.9° - - -
3/28 7:10pm 303 4 G 5 61° 36% - - 33° 70.5° 46.9° - - -
3/28 7:00pm 292 5 G 6 61° 34% - - 32° 70.5° 46.9° - - -
3/28 6:50pm 280 5 G 7 62° 31% - - 31° 70.5° 46.9° - - -
3/28 6:40pm 264 5 G 6 63° 34% - - 34° 70.5° 46.9° - - -
3/28 6:30pm 261 5 G 8 63° 36% - - 36° 70.5° 46.9° - - -
3/28 6:20pm 310 6 G 10 63° 35% - - 35° 70.5° 46.9° - - -
3/28 6:10pm 295 6 G 10 64° 35% - - 36° 70.5° 46.9° - - -
3/28 6:00pm 280 6 G 9 64° 35% - - 36° 70.5° 46.9° - - -
3/28 5:50pm 271 7 G 10 64° 36% - - 36° 70.5° 46.9° - - -
3/28 5:40pm 268 8 G 11 65° 38% - - 38° 70.5° 46.9° - - -
3/28 5:30pm 284 9 G 13 65° 37% - - 38° 70.5° 46.9° - - -
3/28 5:20pm 286 10 G 15 65° 36% - - 38° 70.5° 46.9° - - -
3/28 5:10pm 287 10 G 15 66° 37% - - 39° 70.5° 46.9° - - -
3/28 5:00pm 280 12 G 16 66° 37% - - 39° 70.5° 46.9° - - -
3/28 4:50pm 273 11 G 16 67° 34% - - 38° 70.5° 46.9° - - -
3/28 4:40pm 253 11 G 16 68° 34% - - 38° 70.5° 46.9° - - -
3/28 4:30pm 277 9 G 13 69° 32% - - 38° 70.5° 46.9° - - -
3/28 4:20pm 286 7 G 11 69° 30% - - 36° 70.5° 46.9° - - -
3/28 4:10pm 266 7 G 11 70° 28% - - 36° 70.5° 46.9° - - -
3/28 4:00pm 258 6 G 11 70° 28% - - 35° 70.3° 46.9° - - -
3/28 3:50pm 260 8 G 15 69° 29% - - 36° 70.3° 46.9° - - -
3/28 3:40pm 296 6 G 13 70° 29% - - 36° 70.3° 46.9° - - -
3/28 3:30pm 289 6 G 10 69° 27% - - 34° 70.2° 46.9° - - -
3/28 3:20pm 281 9 G 15 69° 28% - - 34° 70.2° 46.9° - - -
3/28 3:10pm 276 7 G 13 69° 27% - - 34° 70.2° 46.9° - - -
3/28 3:00pm 261 8 G 13 69° 27% - - 33° 69.5° 46.9° - - -
3/28 2:50pm 259 7 G 15 69° 26% - - 33° 69.5° 46.9° - - -
3/28 2:40pm 273 8 G 16 68° 26% - - 32° 69.5° 46.9° - - -
3/28 2:30pm 255 8 G 14 69° 25% - - 32° 69.5° 46.9° - - -
3/28 2:20pm 264 7 G 14 69° 24% - - 31° 69.5° 46.9° - - -
3/28 2:10pm 270 7 G 11 69° 24% - - 30° 69.4° 46.9° - - -
3/28 2:00pm 285 6 G 11 68° 23% - - 29° 68.8° 46.9° - - -
3/28 1:50pm 283 7 G 12 67° 23% - - 29° 68.8° 46.9° - - -
3/28 1:40pm 284 7 G 12 68° 23% - - 29° 68.8° 46.9° - - -
3/28 1:30pm 283 6 G 9 68° 23% - - 28° 68.8° 46.9° - - -
3/28 1:20pm 279 8 G 13 68° 24% - - 29° 68.8° 46.9° - - -
3/28 1:10pm 278 3 G 11 67° 24% - - 30° 68.8° 46.9° - - -
3/28 1:00pm 294 4 G 11 67° 25% - - 30° 67.5° 46.9° - - -
3/28 12:50pm 229 5 G 9 67° 25% - - 30° 67.5° 46.9° - - -
3/28 12:40pm 240 4 G 8 66° 25% - - 30° 67.1° 46.9° - - -
3/28 12:30pm 261 4 G 10 66° 26% - - 30° 67.1° 46.9° - - -
3/28 12:20pm 283 6 G 10 65° 26% - - 29° 66° 46.9° - - -
3/28 12:10pm 281 6 G 10 65° 26% - - 30° 66° 46.9° - - -
3/28 12:00pm 219 6 G 12 65° 28% - - 31° 66° 46.9° - - -
3/28 11:50am 224 5 G 9 65° 28% - - 31° 65.7° 46.9° - - -
3/28 11:40am 234 6 G 12 65° 29% - - 32° 65.7° 46.9° - - -
3/28 11:30am 196 3 G 7 65° 32% - - 34° 65.7° 46.9° - - -
3/28 11:20am 138 2 G 6 64° 35% - - 36° 65.3° 46.9° - - -
3/28 11:10am 275 3 G 6 63° 33% - - 33° 64.5° 46.9° - - -
3/28 11:00am 274 3 G 6 63° 35% - - 35° 64.5° 46.9° - - -
3/28 10:50am 278 2 G 6 62° 38% - - 36° 64.5° 46.9° - - -
3/28 10:40am 276 3 G 6 62° 37% - - 36° 64.5° 46.9° - - -
3/28 10:30am 189 2 G 4 64° 37% - - 37° 64.5° 46.9° - - -
3/28 10:20am 262 2 G 7 61° 41% - - 37° 62.4° 46.9° - - -
3/28 10:10am 226 4 G 6 61° 43% - - 38° 61.8° 46.9° - - -
3/28 10:00am 215 2 G 6 61° 43% - - 39° 61.8° 46.9° - - -
3/28 9:50am 132 2 G 4 61° 48% - - 41° 61.5° 46.9° - - -
3/28 9:40am 40 2 G 5 60° 47% - - 40° 61° 46.9° - - -
3/28 9:30am 271 3 G 6 59° 47% - - 39° 59.6° 46.9° - - -
3/28 9:20am 275 2 G 4 58° 41% - - 35° 59.6° 46.9° - - -
3/28 9:10am 239 3 G 5 58° 42% - - 35° 59.6° 46.9° - - -
3/28 9:00am 236 1 G 3 59° 43% - - 36° 59.6° 46.9° - - -
3/28 8:50am 53 1 G 2 58° 41% - - 35° 59.1° 46.9° - - -
3/28 8:40am 79 2 G 4 57° 42% - - 34° 57.7° 46.9° - - -
3/28 8:30am 45 3 G 5 54° 43% - - 32° 55.8° 46.9° - - -
3/28 8:20am 41 4 G 6 53° 46% - - 33° 53.7° 46.9° - - -
3/28 8:10am 50 3 G 5 53° 47% - - 33° 53.3° 46.9° - - -
3/28 8:00am 54 3 G 5 51° 50% - - 33° 52.7° 46.9° - - -
3/28 7:50am 33 3 G 5 50° 59% - - 36° 50.9° 46.9° - - -
3/28 7:40am 29 2 G 3 50° 63% - - 37° 50.9° 46.9° - - -
3/28 7:30am 356 3 G 4 48° 67% - - 38° 50.9° 46.9° - - -
3/28 7:20am 32 4 G 6 47° 72% - - 39° 50.9° 46.9° - - -
3/28 7:10am 34 4 G 6 49° 68% - - 38° 50.9° 47.1° - - -
3/28 7:00am 29 3 G 4 50° 55% - - 35° 50.9° 47.1° - - -
3/28 6:50am 29 2 G 5 51° 53% - - 34° 50.9° 47.1° - - -
3/28 6:40am 6 4 G 5 50° 55% - - 35° 50.8° 47.1° - - -
3/28 6:30am 6 4 G 5 49° 60% - - 36° 50.7° 47.1° - - -
3/28 6:20am 12 3 G 5 49° 60% - - 36° 50.7° 47.1° - - -
3/28 6:10am 20 4 G 6 48° 64% - - 37° 50.7° 47.1° - - -
3/28 6:00am 46 3 G 5 50° 60% - - 37° 50.7° 47.1° - - -